createdAt,value
2023-01-10T00:02:37.879Z,83.47
2023-01-10T00:17:40.601Z,84.44
2023-01-10T00:32:44.933Z,84.34
2023-01-10T00:47:48.637Z,84.63
2023-01-10T01:02:51.588Z,84.59
2023-01-10T01:17:55.091Z,84.35
2023-01-10T01:32:58.028Z,84.59
2023-01-10T01:48:26.781Z,84.30
2023-01-10T02:03:29.981Z,84.03
2023-01-10T02:18:33.038Z,84.65
2023-01-10T02:49:54.788Z,84.25
2023-01-10T03:05:48.747Z,83.51
2023-01-10T03:20:55.038Z,83.09
2023-01-10T03:36:30.578Z,83.02
2023-01-10T03:51:36.906Z,83.21
2023-01-10T04:06:54.250Z,83.77
2023-01-10T04:21:56.763Z,83.16
2023-01-10T04:36:59.516Z,83.64
2023-01-10T04:52:02.238Z,84.09
2023-01-10T05:07:04.817Z,84.61
2023-01-10T05:22:07.829Z,84.36
2023-01-10T05:37:10.528Z,84.14
2023-01-10T05:52:27.578Z,84.22
2023-01-10T06:07:31.857Z,84.70
2023-01-10T06:22:35.080Z,84.29
2023-01-10T06:37:52.187Z,83.92
2023-01-10T06:53:00.346Z,83.74
2023-01-10T07:08:03.205Z,83.37
2023-01-10T07:23:06.682Z,83.67
2023-01-10T07:38:09.675Z,84.32
2023-01-10T07:53:12.665Z,84.50
2023-01-10T08:08:16.859Z,84.19
2023-01-10T08:23:21.783Z,84.62
2023-01-10T08:38:39.306Z,85.34
2023-01-10T08:53:42.499Z,85.11
2023-01-10T09:08:45.301Z,84.82
2023-01-10T09:23:48.565Z,85.34
2023-01-10T09:38:51.383Z,85.00
2023-01-10T09:54:10.643Z,85.06
2023-01-10T10:09:28.306Z,85.18
2023-01-10T10:24:50.635Z,85.28
2023-01-10T10:40:17.068Z,85.66
2023-01-10T10:55:32.868Z,85.56
2023-01-10T11:10:35.960Z,85.08
2023-01-10T11:25:49.152Z,84.62
2023-01-10T11:41:02.123Z,84.68
2023-01-10T11:56:08.738Z,84.93
2023-01-10T12:11:17.799Z,84.81
2023-01-10T12:26:21.964Z,84.68
2023-01-10T12:42:00.955Z,84.08
2023-01-10T12:57:20.125Z,84.31
2023-01-10T13:12:46.432Z,84.00
2023-01-10T13:28:04.158Z,83.71
2023-01-10T13:43:58.579Z,82.89
2023-01-10T13:59:23.509Z,81.60
2023-01-10T14:14:34.406Z,82.28
2023-01-10T14:29:38.805Z,81.79
2023-01-10T14:44:50.984Z,82.18
2023-01-10T15:00:17.925Z,82.36
2023-01-10T15:15:32.743Z,82.51
2023-01-10T15:30:38.038Z,82.84
2023-01-10T15:45:42.480Z,83.44
2023-01-10T16:00:49.444Z,83.60
2023-01-10T16:15:56.815Z,83.45
2023-01-10T16:31:00.319Z,84.04
2023-01-10T16:46:05.111Z,84.39
2023-01-10T17:01:28.546Z,83.17
2023-01-10T17:16:32.443Z,83.06
2023-01-10T17:31:35.280Z,83.59
2023-01-10T17:46:39.537Z,83.84
2023-01-10T18:01:43.079Z,83.50
2023-01-10T18:16:46.528Z,83.96
2023-01-10T18:32:04.245Z,83.45
2023-01-10T18:47:08.137Z,83.66
2023-01-10T19:02:15.691Z,83.44
2023-01-10T19:17:19.487Z,83.48
2023-01-10T19:32:22.687Z,83.40
2023-01-10T19:47:25.497Z,83.65
2023-01-10T20:02:28.737Z,82.95
2023-01-10T20:17:32.850Z,83.09
2023-01-10T20:32:36.540Z,83.51
2023-01-10T20:47:39.551Z,82.90
2023-01-10T21:02:42.957Z,82.73
2023-01-10T21:17:49.076Z,83.30
2023-01-10T21:33:12.975Z,83.19
2023-01-10T21:48:18.501Z,82.94
2023-01-10T22:03:21.552Z,83.20
2023-01-10T22:18:24.830Z,83.04
2023-01-10T22:33:31.140Z,82.91
2023-01-10T22:48:38.260Z,83.11
2023-01-10T23:03:55.320Z,82.83
2023-01-10T23:18:59.277Z,82.34
2023-01-10T23:34:02.634Z,83.04
2023-01-10T23:49:05.872Z,82.55
